sensor_id;sensor_type;location;lat;lon;timestamp;P1;durP1;ratioP1;P2;durP2;ratioP2
9522;SDS011;63165;43.016;25.784;2023-02-01T00:00:36;13.73;;;6.20;;
9522;SDS011;63165;43.016;25.784;2023-02-01T00:03:04;20.48;;;6.40;;
9522;SDS011;63165;43.016;25.784;2023-02-01T00:05:33;13.02;;;5.45;;
9522;SDS011;63165;43.016;25.784;2023-02-01T00:08:01;23.48;;;6.95;;
9522;SDS011;63165;43.016;25.784;2023-02-01T00:10:29;16.30;;;5.57;;
9522;SDS011;63165;43.016;25.784;2023-02-01T00:12:57;18.70;;;6.05;;
9522;SDS011;63165;43.016;25.784;2023-02-01T00:15:33;17.13;;;5.85;;
9522;SDS011;63165;43.016;25.784;2023-02-01T00:18:01;17.92;;;6.40;;
9522;SDS011;63165;43.016;25.784;2023-02-01T00:20:28;18.90;;;7.15;;
9522;SDS011;63165;43.016;25.784;2023-02-01T00:22:55;18.08;;;6.30;;
9522;SDS011;63165;43.016;25.784;2023-02-01T00:25:23;19.15;;;6.05;;
9522;SDS011;63165;43.016;25.784;2023-02-01T00:27:51;15.23;;;6.30;;
9522;SDS011;63165;43.016;25.784;2023-02-01T00:30:19;13.77;;;5.93;;
9522;SDS011;63165;43.016;25.784;2023-02-01T00:32:47;18.75;;;6.18;;
9522;SDS011;63165;43.016;25.784;2023-02-01T00:35:14;17.25;;;7.38;;
9522;SDS011;63165;43.016;25.784;2023-02-01T00:37:42;15.35;;;6.38;;
9522;SDS011;63165;43.016;25.784;2023-02-01T00:40:09;18.30;;;6.65;;
9522;SDS011;63165;43.016;25.784;2023-02-01T00:42:37;20.10;;;6.50;;
9522;SDS011;63165;43.016;25.784;2023-02-01T00:45:07;20.05;;;6.80;;
9522;SDS011;63165;43.016;25.784;2023-02-01T00:47:35;17.23;;;7.38;;
9522;SDS011;63165;43.016;25.784;2023-02-01T00:50:03;18.27;;;6.03;;
9522;SDS011;63165;43.016;25.784;2023-02-01T00:52:31;14.60;;;6.00;;
9522;SDS011;63165;43.016;25.784;2023-02-01T00:54:58;18.02;;;6.82;;
9522;SDS011;63165;43.016;25.784;2023-02-01T00:57:25;23.50;;;7.03;;
9522;SDS011;63165;43.016;25.784;2023-02-01T00:59:53;18.48;;;6.15;;
9522;SDS011;63165;43.016;25.784;2023-02-01T01:02:22;17.60;;;7.13;;
9522;SDS011;63165;43.016;25.784;2023-02-01T01:04:49;17.80;;;7.00;;
9522;SDS011;63165;43.016;25.784;2023-02-01T01:07:16;16.85;;;5.75;;
9522;SDS011;63165;43.016;25.784;2023-02-01T01:09:43;21.17;;;7.18;;
9522;SDS011;63165;43.016;25.784;2023-02-01T01:12:11;20.70;;;6.57;;
9522;SDS011;63165;43.016;25.784;2023-02-01T01:14:38;20.13;;;7.00;;
9522;SDS011;63165;43.016;25.784;2023-02-01T01:17:05;14.10;;;5.80;;
9522;SDS011;63165;43.016;25.784;2023-02-01T01:19:34;12.85;;;5.20;;
9522;SDS011;63165;43.016;25.784;2023-02-01T01:22:02;12.63;;;5.57;;
9522;SDS011;63165;43.016;25.784;2023-02-01T01:24:29;15.90;;;5.10;;
9522;SDS011;63165;43.016;25.784;2023-02-01T01:26:56;12.52;;;5.03;;
9522;SDS011;63165;43.016;25.784;2023-02-01T01:29:24;14.52;;;5.85;;
9522;SDS011;63165;43.016;25.784;2023-02-01T01:31:51;24.15;;;7.63;;
9522;SDS011;63165;43.016;25.784;2023-02-01T01:34:19;11.13;;;4.82;;
9522;SDS011;63165;43.016;25.784;2023-02-01T01:36:47;10.70;;;4.53;;
9522;SDS011;63165;43.016;25.784;2023-02-01T01:39:15;11.00;;;4.78;;
9522;SDS011;63165;43.016;25.784;2023-02-01T01:41:42;13.93;;;4.65;;
9522;SDS011;63165;43.016;25.784;2023-02-01T01:47:10;14.27;;;4.88;;
9522;SDS011;63165;43.016;25.784;2023-02-01T01:49:37;12.32;;;4.85;;
9522;SDS011;63165;43.016;25.784;2023-02-01T02:02:09;13.73;;;4.70;;
9522;SDS011;63165;43.016;25.784;2023-02-01T02:04:44;12.65;;;4.88;;
9522;SDS011;63165;43.016;25.784;2023-02-01T02:10:04;17.17;;;5.40;;
9522;SDS011;63165;43.016;25.784;2023-02-01T02:16:20;13.30;;;5.07;;
9522;SDS011;63165;43.016;25.784;2023-02-01T02:56:08;16.08;;;5.50;;
9522;SDS011;63165;43.016;25.784;2023-02-01T02:59:32;9.63;;;4.30;;
9522;SDS011;63165;43.016;25.784;2023-02-01T03:02:37;9.35;;;4.53;;
9522;SDS011;63165;43.016;25.784;2023-02-01T03:25:36;8.02;;;3.47;;
9522;SDS011;63165;43.016;25.784;2023-02-01T03:28:22;14.93;;;4.55;;
9522;SDS011;63165;43.016;25.784;2023-02-01T03:31:14;20.92;;;5.93;;
9522;SDS011;63165;43.016;25.784;2023-02-01T03:34:13;13.18;;;4.95;;
9522;SDS011;63165;43.016;25.784;2023-02-01T03:37:33;15.27;;;4.50;;
9522;SDS011;63165;43.016;25.784;2023-02-01T03:40:35;38.13;;;13.98;;
9522;SDS011;63165;43.016;25.784;2023-02-01T03:43:20;52.42;;;18.00;;
9522;SDS011;63165;43.016;25.784;2023-02-01T03:46:22;61.00;;;21.60;;
9522;SDS011;63165;43.016;25.784;2023-02-01T03:49:16;23.63;;;8.52;;
9522;SDS011;63165;43.016;25.784;2023-02-01T03:52:10;19.05;;;7.63;;
9522;SDS011;63165;43.016;25.784;2023-02-01T03:55:21;24.40;;;8.60;;
9522;SDS011;63165;43.016;25.784;2023-02-01T04:25:10;17.85;;;5.13;;
9522;SDS011;63165;43.016;25.784;2023-02-01T04:31:09;11.02;;;4.22;;
9522;SDS011;63165;43.016;25.784;2023-02-01T04:37:45;9.82;;;4.35;;
9522;SDS011;63165;43.016;25.784;2023-02-01T05:15:02;11.13;;;4.47;;
9522;SDS011;63165;43.016;25.784;2023-02-01T05:18:38;16.67;;;5.47;;
9522;SDS011;63165;43.016;25.784;2023-02-01T05:22:31;29.10;;;8.32;;
9522;SDS011;63165;43.016;25.784;2023-02-01T05:25:49;25.67;;;9.43;;
9522;SDS011;63165;43.016;25.784;2023-02-01T06:05:38;43.03;;;14.82;;
9522;SDS011;63165;43.016;25.784;2023-02-01T06:12:26;16.20;;;7.03;;
9522;SDS011;63165;43.016;25.784;2023-02-01T06:15:39;20.10;;;6.40;;
9522;SDS011;63165;43.016;25.784;2023-02-01T06:22:29;30.67;;;11.88;;
9522;SDS011;63165;43.016;25.784;2023-02-01T06:25:28;16.38;;;6.60;;
9522;SDS011;63165;43.016;25.784;2023-02-01T06:28:27;18.25;;;7.10;;
9522;SDS011;63165;43.016;25.784;2023-02-01T06:47:43;24.20;;;8.20;;
9522;SDS011;63165;43.016;25.784;2023-02-01T06:51:12;19.98;;;6.90;;
9522;SDS011;63165;43.016;25.784;2023-02-01T06:54:07;52.97;;;14.63;;
9522;SDS011;63165;43.016;25.784;2023-02-01T07:06:53;122.93;;;39.60;;
9522;SDS011;63165;43.016;25.784;2023-02-01T07:09:45;42.05;;;15.05;;
9522;SDS011;63165;43.016;25.784;2023-02-01T07:12:56;97.65;;;32.30;;
9522;SDS011;63165;43.016;25.784;2023-02-01T07:15:46;68.47;;;22.25;;
9522;SDS011;63165;43.016;25.784;2023-02-01T07:28:53;59.00;;;21.10;;
9522;SDS011;63165;43.016;25.784;2023-02-01T07:32:36;76.63;;;24.00;;
9522;SDS011;63165;43.016;25.784;2023-02-01T07:35:44;82.75;;;25.40;;
9522;SDS011;63165;43.016;25.784;2023-02-01T07:38:33;199.02;;;60.45;;
9522;SDS011;63165;43.016;25.784;2023-02-01T07:42:03;88.45;;;28.13;;
9522;SDS011;63165;43.016;25.784;2023-02-01T07:45:14;55.83;;;18.65;;
9522;SDS011;63165;43.016;25.784;2023-02-01T07:47:47;26.52;;;10.55;;
9522;SDS011;63165;43.016;25.784;2023-02-01T07:50:59;23.95;;;7.63;;
9522;SDS011;63165;43.016;25.784;2023-02-01T07:57:00;17.48;;;7.53;;
9522;SDS011;63165;43.016;25.784;2023-02-01T07:59:45;18.02;;;7.15;;
9522;SDS011;63165;43.016;25.784;2023-02-01T08:03:00;17.50;;;7.03;;
9522;SDS011;63165;43.016;25.784;2023-02-01T08:08:46;38.22;;;12.55;;
9522;SDS011;63165;43.016;25.784;2023-02-01T08:11:27;23.00;;;7.70;;
9522;SDS011;63165;43.016;25.784;2023-02-01T08:14:13;21.85;;;8.23;;
9522;SDS011;63165;43.016;25.784;2023-02-01T08:17:04;24.25;;;8.23;;
9522;SDS011;63165;43.016;25.784;2023-02-01T08:19:48;30.77;;;9.68;;
9522;SDS011;63165;43.016;25.784;2023-02-01T08:22:36;23.13;;;9.30;;
9522;SDS011;63165;43.016;25.784;2023-02-01T08:25:23;21.63;;;7.05;;
9522;SDS011;63165;43.016;25.784;2023-02-01T08:28:09;20.60;;;7.80;;
9522;SDS011;63165;43.016;25.784;2023-02-01T08:31:05;18.05;;;7.40;;
9522;SDS011;63165;43.016;25.784;2023-02-01T08:33:41;26.60;;;7.35;;
9522;SDS011;63165;43.016;25.784;2023-02-01T08:36:23;25.23;;;8.15;;
9522;SDS011;63165;43.016;25.784;2023-02-01T08:39:11;10.57;;;4.38;;
9522;SDS011;63165;43.016;25.784;2023-02-01T08:41:58;11.55;;;4.88;;
9522;SDS011;63165;43.016;25.784;2023-02-01T08:44:59;14.57;;;5.22;;
9522;SDS011;63165;43.016;25.784;2023-02-01T08:47:56;19.35;;;6.70;;
9522;SDS011;63165;43.016;25.784;2023-02-01T08:50:32;12.98;;;5.55;;
9522;SDS011;63165;43.016;25.784;2023-02-01T08:53:08;18.65;;;6.00;;
9522;SDS011;63165;43.016;25.784;2023-02-01T08:55:46;10.73;;;3.72;;
9522;SDS011;63165;43.016;25.784;2023-02-01T08:58:21;15.77;;;5.32;;
9522;SDS011;63165;43.016;25.784;2023-02-01T09:01:02;15.00;;;5.80;;
9522;SDS011;63165;43.016;25.784;2023-02-01T09:03:35;14.50;;;4.75;;
9522;SDS011;63165;43.016;25.784;2023-02-01T09:06:12;10.40;;;3.65;;
9522;SDS011;63165;43.016;25.784;2023-02-01T09:08:46;12.30;;;3.80;;
9522;SDS011;63165;43.016;25.784;2023-02-01T09:11:19;17.83;;;6.03;;
9522;SDS011;63165;43.016;25.784;2023-02-01T09:14:00;20.30;;;5.82;;
9522;SDS011;63165;43.016;25.784;2023-02-01T09:16:29;9.05;;;3.65;;
9522;SDS011;63165;43.016;25.784;2023-02-01T09:18:59;9.57;;;2.92;;
9522;SDS011;63165;43.016;25.784;2023-02-01T09:21:30;14.93;;;4.68;;
9522;SDS011;63165;43.016;25.784;2023-02-01T09:24:03;14.07;;;4.60;;
9522;SDS011;63165;43.016;25.784;2023-02-01T09:26:35;8.55;;;3.50;;
9522;SDS011;63165;43.016;25.784;2023-02-01T09:29:08;10.38;;;3.80;;
9522;SDS011;63165;43.016;25.784;2023-02-01T09:31:45;9.80;;;3.85;;
9522;SDS011;63165;43.016;25.784;2023-02-01T09:34:23;6.75;;;3.20;;
9522;SDS011;63165;43.016;25.784;2023-02-01T09:36:57;7.45;;;3.70;;
9522;SDS011;63165;43.016;25.784;2023-02-01T09:39:28;10.23;;;3.72;;
9522;SDS011;63165;43.016;25.784;2023-02-01T09:44:57;9.73;;;3.33;;
9522;SDS011;63165;43.016;25.784;2023-02-01T09:47:39;12.77;;;5.57;;
9522;SDS011;63165;43.016;25.784;2023-02-01T09:50:19;7.88;;;3.20;;
9522;SDS011;63165;43.016;25.784;2023-02-01T09:52:57;14.48;;;4.30;;
9522;SDS011;63165;43.016;25.784;2023-02-01T09:55:36;10.02;;;3.47;;
9522;SDS011;63165;43.016;25.784;2023-02-01T09:58:12;14.95;;;5.32;;
9522;SDS011;63165;43.016;25.784;2023-02-01T10:00:56;11.15;;;5.13;;
9522;SDS011;63165;43.016;25.784;2023-02-01T10:03:35;14.07;;;4.20;;
9522;SDS011;63165;43.016;25.784;2023-02-01T10:06:24;9.93;;;3.67;;
9522;SDS011;63165;43.016;25.784;2023-02-01T10:09:06;11.55;;;4.22;;
9522;SDS011;63165;43.016;25.784;2023-02-01T10:14:52;15.32;;;4.32;;
9522;SDS011;63165;43.016;25.784;2023-02-01T10:17:34;12.10;;;4.00;;
9522;SDS011;63165;43.016;25.784;2023-02-01T10:20:22;18.80;;;5.68;;
9522;SDS011;63165;43.016;25.784;2023-02-01T10:23:03;11.80;;;4.30;;
9522;SDS011;63165;43.016;25.784;2023-02-01T10:25:58;9.27;;;3.42;;
9522;SDS011;63165;43.016;25.784;2023-02-01T10:28:43;8.32;;;2.70;;
9522;SDS011;63165;43.016;25.784;2023-02-01T10:31:21;32.38;;;9.10;;
9522;SDS011;63165;43.016;25.784;2023-02-01T10:33:59;7.05;;;2.97;;
9522;SDS011;63165;43.016;25.784;2023-02-01T10:36:40;9.27;;;4.20;;
9522;SDS011;63165;43.016;25.784;2023-02-01T10:39:23;12.90;;;3.45;;
9522;SDS011;63165;43.016;25.784;2023-02-01T10:41:58;8.02;;;3.08;;
9522;SDS011;63165;43.016;25.784;2023-02-01T10:44:33;8.15;;;2.67;;
9522;SDS011;63165;43.016;25.784;2023-02-01T10:47:10;9.10;;;2.92;;
9522;SDS011;63165;43.016;25.784;2023-02-01T10:49:46;8.32;;;3.50;;
9522;SDS011;63165;43.016;25.784;2023-02-01T10:52:30;9.88;;;2.95;;
9522;SDS011;63165;43.016;25.784;2023-02-01T10:55:30;7.93;;;2.72;;
9522;SDS011;63165;43.016;25.784;2023-02-01T10:58:16;9.32;;;3.05;;
9522;SDS011;63165;43.016;25.784;2023-02-01T11:00:54;5.95;;;2.38;;
9522;SDS011;63165;43.016;25.784;2023-02-01T11:03:32;14.50;;;6.18;;
9522;SDS011;63165;43.016;25.784;2023-02-01T11:06:10;15.52;;;5.53;;
9522;SDS011;63165;43.016;25.784;2023-02-01T11:08:45;9.18;;;3.10;;
9522;SDS011;63165;43.016;25.784;2023-02-01T11:11:16;11.65;;;2.58;;
9522;SDS011;63165;43.016;25.784;2023-02-01T11:13:44;6.03;;;2.50;;
9522;SDS011;63165;43.016;25.784;2023-02-01T11:16:23;7.75;;;2.65;;
9522;SDS011;63165;43.016;25.784;2023-02-01T11:18:57;6.38;;;2.60;;
9522;SDS011;63165;43.016;25.784;2023-02-01T11:21:26;5.68;;;2.20;;
9522;SDS011;63165;43.016;25.784;2023-02-01T11:23:54;6.70;;;2.30;;
9522;SDS011;63165;43.016;25.784;2023-02-01T11:26:26;10.10;;;2.45;;
9522;SDS011;63165;43.016;25.784;2023-02-01T11:28:58;6.88;;;2.13;;
9522;SDS011;63165;43.016;25.784;2023-02-01T11:31:32;6.18;;;2.05;;
9522;SDS011;63165;43.016;25.784;2023-02-01T11:34:05;7.70;;;2.70;;
9522;SDS011;63165;43.016;25.784;2023-02-01T11:36:35;11.55;;;2.67;;
9522;SDS011;63165;43.016;25.784;2023-02-01T11:41:58;10.13;;;2.40;;
9522;SDS011;63165;43.016;25.784;2023-02-01T11:44:32;10.55;;;3.53;;
9522;SDS011;63165;43.016;25.784;2023-02-01T11:49:56;12.93;;;3.50;;
9522;SDS011;63165;43.016;25.784;2023-02-01T11:52:40;8.52;;;2.65;;
9522;SDS011;63165;43.016;25.784;2023-02-01T11:55:31;12.43;;;4.22;;
9522;SDS011;63165;43.016;25.784;2023-02-01T11:58:12;8.98;;;2.25;;
9522;SDS011;63165;43.016;25.784;2023-02-01T12:00:53;13.80;;;2.53;;
9522;SDS011;63165;43.016;25.784;2023-02-01T12:06:38;7.38;;;2.55;;
9522;SDS011;63165;43.016;25.784;2023-02-01T12:12:22;7.38;;;2.70;;
9522;SDS011;63165;43.016;25.784;2023-02-01T12:20:59;10.98;;;3.22;;
9522;SDS011;63165;43.016;25.784;2023-02-01T12:23:57;5.53;;;1.88;;
9522;SDS011;63165;43.016;25.784;2023-02-01T12:26:45;6.35;;;2.53;;
9522;SDS011;63165;43.016;25.784;2023-02-01T12:29:35;36.08;;;10.68;;
9522;SDS011;63165;43.016;25.784;2023-02-01T12:32:20;6.68;;;2.45;;
9522;SDS011;63165;43.016;25.784;2023-02-01T12:35:04;43.10;;;10.63;;
9522;SDS011;63165;43.016;25.784;2023-02-01T12:37:51;21.15;;;6.43;;
9522;SDS011;63165;43.016;25.784;2023-02-01T12:40:34;6.18;;;2.60;;
9522;SDS011;63165;43.016;25.784;2023-02-01T12:43:12;17.02;;;4.38;;
9522;SDS011;63165;43.016;25.784;2023-02-01T12:45:49;5.05;;;2.00;;
9522;SDS011;63165;43.016;25.784;2023-02-01T12:48:28;10.93;;;3.03;;
9522;SDS011;63165;43.016;25.784;2023-02-01T12:51:02;9.25;;;2.60;;
9522;SDS011;63165;43.016;25.784;2023-02-01T12:53:38;7.07;;;2.00;;
9522;SDS011;63165;43.016;25.784;2023-02-01T12:56:13;6.22;;;2.50;;
9522;SDS011;63165;43.016;25.784;2023-02-01T12:58:45;5.90;;;2.03;;
9522;SDS011;63165;43.016;25.784;2023-02-01T13:01:16;5.28;;;1.60;;
9522;SDS011;63165;43.016;25.784;2023-02-01T13:03:52;6.00;;;2.05;;
9522;SDS011;63165;43.016;25.784;2023-02-01T13:06:26;4.38;;;2.00;;
9522;SDS011;63165;43.016;25.784;2023-02-01T13:09:00;7.55;;;2.13;;
9522;SDS011;63165;43.016;25.784;2023-02-01T13:11:36;4.90;;;2.15;;
9522;SDS011;63165;43.016;25.784;2023-02-01T13:14:07;7.93;;;1.98;;
9522;SDS011;63165;43.016;25.784;2023-02-01T13:16:43;7.47;;;2.55;;
9522;SDS011;63165;43.016;25.784;2023-02-01T13:19:16;4.80;;;1.90;;
9522;SDS011;63165;43.016;25.784;2023-02-01T13:21:48;5.50;;;2.65;;
9522;SDS011;63165;43.016;25.784;2023-02-01T13:24:27;6.18;;;3.08;;
9522;SDS011;63165;43.016;25.784;2023-02-01T13:27:00;5.75;;;1.77;;
9522;SDS011;63165;43.016;25.784;2023-02-01T13:29:28;5.57;;;1.88;;
9522;SDS011;63165;43.016;25.784;2023-02-01T13:35:12;5.20;;;1.75;;
9522;SDS011;63165;43.016;25.784;2023-02-01T13:38:17;7.10;;;2.45;;
9522;SDS011;63165;43.016;25.784;2023-02-01T13:41:06;7.03;;;2.35;;
9522;SDS011;63165;43.016;25.784;2023-02-01T13:43:44;5.68;;;2.03;;
9522;SDS011;63165;43.016;25.784;2023-02-01T13:46:17;6.25;;;2.10;;
9522;SDS011;63165;43.016;25.784;2023-02-01T13:48:46;8.43;;;2.25;;
9522;SDS011;63165;43.016;25.784;2023-02-01T13:51:17;7.72;;;2.00;;
9522;SDS011;63165;43.016;25.784;2023-02-01T13:54:01;3.80;;;1.80;;
9522;SDS011;63165;43.016;25.784;2023-02-01T13:56:32;7.55;;;3.42;;
9522;SDS011;63165;43.016;25.784;2023-02-01T14:08:36;4.35;;;1.58;;
9522;SDS011;63165;43.016;25.784;2023-02-01T14:11:39;11.77;;;3.58;;
9522;SDS011;63165;43.016;25.784;2023-02-01T14:23:27;6.47;;;2.30;;
9522;SDS011;63165;43.016;25.784;2023-02-01T14:26:03;7.90;;;2.00;;
9522;SDS011;63165;43.016;25.784;2023-02-01T14:28:42;9.93;;;2.33;;
9522;SDS011;63165;43.016;25.784;2023-02-01T14:31:26;3.65;;;1.60;;
9522;SDS011;63165;43.016;25.784;2023-02-01T14:34:16;10.07;;;2.45;;
9522;SDS011;63165;43.016;25.784;2023-02-01T14:36:47;4.20;;;1.80;;
9522;SDS011;63165;43.016;25.784;2023-02-01T14:39:33;3.67;;;1.83;;
9522;SDS011;63165;43.016;25.784;2023-02-01T14:42:05;5.72;;;2.47;;
9522;SDS011;63165;43.016;25.784;2023-02-01T14:44:49;2.63;;;1.55;;
9522;SDS011;63165;43.016;25.784;2023-02-01T14:47:27;7.68;;;2.03;;
9522;SDS011;63165;43.016;25.784;2023-02-01T14:50:21;6.57;;;2.42;;
9522;SDS011;63165;43.016;25.784;2023-02-01T14:53:10;5.22;;;2.05;;
9522;SDS011;63165;43.016;25.784;2023-02-01T14:55:51;4.77;;;2.30;;
9522;SDS011;63165;43.016;25.784;2023-02-01T14:58:25;8.65;;;2.63;;
9522;SDS011;63165;43.016;25.784;2023-02-01T15:01:00;10.35;;;2.20;;
9522;SDS011;63165;43.016;25.784;2023-02-01T15:03:34;5.32;;;1.90;;
9522;SDS011;63165;43.016;25.784;2023-02-01T15:09:00;6.82;;;2.50;;
9522;SDS011;63165;43.016;25.784;2023-02-01T15:11:32;6.57;;;2.65;;
9522;SDS011;63165;43.016;25.784;2023-02-01T15:14:20;7.97;;;3.15;;
9522;SDS011;63165;43.016;25.784;2023-02-01T15:16:49;11.93;;;3.92;;
9522;SDS011;63165;43.016;25.784;2023-02-01T15:19:19;26.13;;;7.10;;
9522;SDS011;63165;43.016;25.784;2023-02-01T15:21:48;7.50;;;3.40;;
9522;SDS011;63165;43.016;25.784;2023-02-01T15:24:19;7.05;;;2.67;;
9522;SDS011;63165;43.016;25.784;2023-02-01T15:26:50;21.75;;;6.10;;
9522;SDS011;63165;43.016;25.784;2023-02-01T15:29:19;16.88;;;6.57;;
9522;SDS011;63165;43.016;25.784;2023-02-01T15:31:49;9.80;;;4.10;;
9522;SDS011;63165;43.016;25.784;2023-02-01T15:34:18;17.52;;;3.08;;
9522;SDS011;63165;43.016;25.784;2023-02-01T15:36:47;6.80;;;2.45;;
9522;SDS011;63165;43.016;25.784;2023-02-01T15:39:16;5.80;;;2.55;;
9522;SDS011;63165;43.016;25.784;2023-02-01T15:41:51;6.50;;;2.47;;
9522;SDS011;63165;43.016;25.784;2023-02-01T15:44:27;6.50;;;2.70;;
9522;SDS011;63165;43.016;25.784;2023-02-01T15:47:04;6.60;;;2.78;;
9522;SDS011;63165;43.016;25.784;2023-02-01T15:49:37;9.93;;;3.20;;
9522;SDS011;63165;43.016;25.784;2023-02-01T15:52:11;7.93;;;3.42;;
9522;SDS011;63165;43.016;25.784;2023-02-01T15:54:56;8.57;;;3.35;;
9522;SDS011;63165;43.016;25.784;2023-02-01T15:57:32;8.57;;;3.25;;
9522;SDS011;63165;43.016;25.784;2023-02-01T16:00:21;9.65;;;4.47;;
9522;SDS011;63165;43.016;25.784;2023-02-01T16:03:23;10.70;;;4.25;;
9522;SDS011;63165;43.016;25.784;2023-02-01T16:06:09;5.63;;;2.72;;
9522;SDS011;63165;43.016;25.784;2023-02-01T16:09:00;7.90;;;3.88;;
9522;SDS011;63165;43.016;25.784;2023-02-01T16:11:46;9.18;;;3.20;;
9522;SDS011;63165;43.016;25.784;2023-02-01T16:14:24;7.70;;;2.97;;
9522;SDS011;63165;43.016;25.784;2023-02-01T16:16:58;11.63;;;4.60;;
9522;SDS011;63165;43.016;25.784;2023-02-01T16:19:26;11.00;;;4.80;;
9522;SDS011;63165;43.016;25.784;2023-02-01T16:21:57;11.77;;;4.30;;
9522;SDS011;63165;43.016;25.784;2023-02-01T16:24:29;9.98;;;3.75;;
9522;SDS011;63165;43.016;25.784;2023-02-01T16:27:16;10.38;;;3.85;;
9522;SDS011;63165;43.016;25.784;2023-02-01T16:29:49;7.00;;;2.88;;
9522;SDS011;63165;43.016;25.784;2023-02-01T16:32:22;8.75;;;3.15;;
9522;SDS011;63165;43.016;25.784;2023-02-01T16:34:56;6.55;;;3.08;;
9522;SDS011;63165;43.016;25.784;2023-02-01T16:37:24;8.15;;;3.40;;
9522;SDS011;63165;43.016;25.784;2023-02-01T16:39:58;11.35;;;5.28;;
9522;SDS011;63165;43.016;25.784;2023-02-01T16:42:30;11.95;;;4.30;;
9522;SDS011;63165;43.016;25.784;2023-02-01T16:45:05;18.08;;;6.95;;
9522;SDS011;63165;43.016;25.784;2023-02-01T16:47:36;12.55;;;4.43;;
9522;SDS011;63165;43.016;25.784;2023-02-01T16:50:14;37.58;;;10.80;;
9522;SDS011;63165;43.016;25.784;2023-02-01T16:52:47;28.92;;;8.27;;
9522;SDS011;63165;43.016;25.784;2023-02-01T16:55:24;26.05;;;9.65;;
9522;SDS011;63165;43.016;25.784;2023-02-01T16:58:01;27.73;;;9.10;;
9522;SDS011;63165;43.016;25.784;2023-02-01T17:00:33;36.50;;;13.02;;
9522;SDS011;63165;43.016;25.784;2023-02-01T17:03:10;32.92;;;12.48;;
9522;SDS011;63165;43.016;25.784;2023-02-01T17:05:50;30.42;;;11.15;;
9522;SDS011;63165;43.016;25.784;2023-02-01T17:08:24;37.53;;;11.18;;
9522;SDS011;63165;43.016;25.784;2023-02-01T17:11:06;47.15;;;14.45;;
9522;SDS011;63165;43.016;25.784;2023-02-01T17:13:39;26.33;;;8.77;;
9522;SDS011;63165;43.016;25.784;2023-02-01T17:16:15;27.52;;;11.45;;
9522;SDS011;63165;43.016;25.784;2023-02-01T17:18:53;24.73;;;8.70;;
9522;SDS011;63165;43.016;25.784;2023-02-01T17:21:30;63.58;;;19.98;;
9522;SDS011;63165;43.016;25.784;2023-02-01T17:24:18;43.75;;;15.57;;
9522;SDS011;63165;43.016;25.784;2023-02-01T17:26:52;31.75;;;10.95;;
9522;SDS011;63165;43.016;25.784;2023-02-01T17:32:04;37.50;;;13.05;;
9522;SDS011;63165;43.016;25.784;2023-02-01T17:34:40;30.70;;;11.80;;
9522;SDS011;63165;43.016;25.784;2023-02-01T17:37:18;33.28;;;11.85;;
9522;SDS011;63165;43.016;25.784;2023-02-01T17:39:58;26.58;;;9.45;;
9522;SDS011;63165;43.016;25.784;2023-02-01T17:42:32;33.47;;;13.68;;
9522;SDS011;63165;43.016;25.784;2023-02-01T17:45:14;30.08;;;10.30;;
9522;SDS011;63165;43.016;25.784;2023-02-01T17:47:55;20.35;;;7.00;;
9522;SDS011;63165;43.016;25.784;2023-02-01T17:50:33;14.50;;;4.78;;
9522;SDS011;63165;43.016;25.784;2023-02-01T17:53:22;94.57;;;36.85;;
9522;SDS011;63165;43.016;25.784;2023-02-01T17:56:11;23.50;;;7.68;;
9522;SDS011;63165;43.016;25.784;2023-02-01T17:58:45;53.63;;;15.45;;
9522;SDS011;63165;43.016;25.784;2023-02-01T18:01:36;40.75;;;14.05;;
9522;SDS011;63165;43.016;25.784;2023-02-01T18:07:34;43.58;;;16.80;;
9522;SDS011;63165;43.016;25.784;2023-02-01T18:10:23;37.85;;;14.25;;
9522;SDS011;63165;43.016;25.784;2023-02-01T18:16:21;42.47;;;16.42;;
9522;SDS011;63165;43.016;25.784;2023-02-01T18:19:16;41.38;;;15.27;;
9522;SDS011;63165;43.016;25.784;2023-02-01T18:28:34;35.47;;;13.60;;
9522;SDS011;63165;43.016;25.784;2023-02-01T18:31:23;44.60;;;16.90;;
9522;SDS011;63165;43.016;25.784;2023-02-01T18:34:09;37.03;;;15.82;;
9522;SDS011;63165;43.016;25.784;2023-02-01T18:36:52;32.60;;;13.40;;
9522;SDS011;63165;43.016;25.784;2023-02-01T18:39:28;36.40;;;13.88;;
9522;SDS011;63165;43.016;25.784;2023-02-01T18:42:34;45.38;;;16.48;;
9522;SDS011;63165;43.016;25.784;2023-02-01T18:45:30;32.78;;;11.60;;
9522;SDS011;63165;43.016;25.784;2023-02-01T18:48:18;29.17;;;10.90;;
9522;SDS011;63165;43.016;25.784;2023-02-01T18:51:17;46.30;;;20.60;;
9522;SDS011;63165;43.016;25.784;2023-02-01T18:54:00;26.45;;;10.50;;
9522;SDS011;63165;43.016;25.784;2023-02-01T18:56:50;28.30;;;10.77;;
9522;SDS011;63165;43.016;25.784;2023-02-01T18:59:41;26.35;;;10.40;;
9522;SDS011;63165;43.016;25.784;2023-02-01T19:02:22;78.75;;;29.63;;
9522;SDS011;63165;43.016;25.784;2023-02-01T19:05:08;34.45;;;13.30;;
9522;SDS011;63165;43.016;25.784;2023-02-01T19:07:47;34.90;;;12.98;;
9522;SDS011;63165;43.016;25.784;2023-02-01T19:10:40;43.10;;;16.05;;
9522;SDS011;63165;43.016;25.784;2023-02-01T19:13:20;56.38;;;18.35;;
9522;SDS011;63165;43.016;25.784;2023-02-01T19:16:10;60.53;;;20.88;;
9522;SDS011;63165;43.016;25.784;2023-02-01T19:18:44;89.68;;;34.10;;
9522;SDS011;63165;43.016;25.784;2023-02-01T19:21:24;63.42;;;21.20;;
9522;SDS011;63165;43.016;25.784;2023-02-01T19:24:03;68.32;;;25.30;;
9522;SDS011;63165;43.016;25.784;2023-02-01T19:26:34;53.83;;;21.45;;
9522;SDS011;63165;43.016;25.784;2023-02-01T19:29:03;70.20;;;24.77;;
9522;SDS011;63165;43.016;25.784;2023-02-01T19:31:39;99.70;;;31.08;;
9522;SDS011;63165;43.016;25.784;2023-02-01T19:34:20;77.23;;;25.90;;
9522;SDS011;63165;43.016;25.784;2023-02-01T19:36:49;119.13;;;37.88;;
9522;SDS011;63165;43.016;25.784;2023-02-01T19:39:33;77.20;;;24.23;;
9522;SDS011;63165;43.016;25.784;2023-02-01T19:42:27;335.73;;;99.88;;
9522;SDS011;63165;43.016;25.784;2023-02-01T19:45:15;93.57;;;34.13;;
9522;SDS011;63165;43.016;25.784;2023-02-01T19:48:05;52.50;;;18.90;;
9522;SDS011;63165;43.016;25.784;2023-02-01T19:50:48;23.02;;;8.35;;
9522;SDS011;63165;43.016;25.784;2023-02-01T19:53:50;32.42;;;10.75;;
9522;SDS011;63165;43.016;25.784;2023-02-01T19:56:33;64.78;;;19.02;;
9522;SDS011;63165;43.016;25.784;2023-02-01T19:59:25;52.30;;;16.55;;
9522;SDS011;63165;43.016;25.784;2023-02-01T20:02:08;36.55;;;12.85;;
9522;SDS011;63165;43.016;25.784;2023-02-01T20:04:48;39.20;;;12.40;;
9522;SDS011;63165;43.016;25.784;2023-02-01T20:10:44;43.47;;;12.77;;
9522;SDS011;63165;43.016;25.784;2023-02-01T20:13:22;27.75;;;9.20;;
9522;SDS011;63165;43.016;25.784;2023-02-01T20:16:01;36.90;;;11.23;;
9522;SDS011;63165;43.016;25.784;2023-02-01T20:18:45;36.35;;;11.50;;
9522;SDS011;63165;43.016;25.784;2023-02-01T20:21:20;32.72;;;10.65;;
9522;SDS011;63165;43.016;25.784;2023-02-01T20:24:19;38.85;;;11.95;;
9522;SDS011;63165;43.016;25.784;2023-02-01T20:26:59;35.53;;;10.85;;
9522;SDS011;63165;43.016;25.784;2023-02-01T20:29:42;73.95;;;19.73;;
9522;SDS011;63165;43.016;25.784;2023-02-01T20:32:27;62.83;;;18.13;;
9522;SDS011;63165;43.016;25.784;2023-02-01T20:35:06;65.80;;;18.60;;
9522;SDS011;63165;43.016;25.784;2023-02-01T20:37:50;64.07;;;17.95;;
9522;SDS011;63165;43.016;25.784;2023-02-01T20:40:30;65.22;;;18.80;;
9522;SDS011;63165;43.016;25.784;2023-02-01T20:46:15;52.17;;;15.18;;
9522;SDS011;63165;43.016;25.784;2023-02-01T20:48:55;38.30;;;12.18;;
9522;SDS011;63165;43.016;25.784;2023-02-01T20:51:28;85.03;;;26.70;;
9522;SDS011;63165;43.016;25.784;2023-02-01T20:54:02;66.90;;;19.80;;
9522;SDS011;63165;43.016;25.784;2023-02-01T20:56:39;116.70;;;31.98;;
9522;SDS011;63165;43.016;25.784;2023-02-01T20:59:26;72.32;;;20.50;;